Terminal Aerodrome Forecast
Issued by NWS Medford, OR

Home | Current Version | Previous Version | Text Only | Print | Product List | Glossary On
Versions: 1 2 3 4 5 6 7 8 9 10 11 12 13
625
FTUS46 KMFR 121733
TAFMFR
TAF
KMFR 121733Z 1218/1318 VRB03KT P6SM SCT050 BKN080
     FM122100 34006KT P6SM VCSH SCT025 BKN040
     FM130400 14006KT P6SM SCT020 BKN035
     FM130800 VRB03KT 6SM BR OVC020=

USA.gov is the U.S. government's official web portal to all federal, state and local government web resources and services.